Time;durP1;ratioP1;P1;durP2;ratioP2;P2;SDS_P1;SDS_P2;PMS_P1;PMS_P2;Temp;Humidity;BMP_temperature;BMP_pressure;BME280_temperature;BME280_humidity;BME280_pressure;Samples;Min_cycle;Max_cycle;Signal;HPM_P1;HPM_P2
2023/06/08 00:01:40;;;;;;;;;;;;;;;;;;5074798;28;19957;-69
2023/06/08 00:04:07;;;;;;;;;;;;;;;;;;5074719;28;19912;-69
2023/06/08 00:06:33;;;;;;;;;;;;;;;;;;5074607;28;20016;-68
2023/06/08 00:08:59;;;;;;;;;;;;;;;;;;5056913;28;20371;-68
2023/06/08 00:11:25;;;;;;;;;;;;;;;;;;5074604;28;19947;-69
2023/06/08 00:13:50;;;;;;;;;;;;;;;;;;5074609;28;20005;-70
2023/06/08 00:16:15;;;;;;;;;;;;;;;;;;5074634;28;19962;-69
2023/06/08 00:18:41;;;;;;;;;;;;;;;;;;5074428;28;19916;-70
2023/06/08 00:21:06;;;;;;;;;;;;;;;;;;5074292;28;20374;-69
2023/06/08 00:23:31;;;;;;;;;;;;;;;;;;5074933;28;19916;-69
2023/06/08 00:25:57;;;;;;;;;;;;;;;;;;5074464;28;20365;-70
2023/06/08 00:28:23;;;;;;;;;;;;;;;;;;5074062;28;19916;-68
2023/06/08 00:30:48;;;;;;;;;;;;;;;;;;5074276;28;20007;-69
2023/06/08 00:33:14;;;;;;;;;;;;;;;;;;5074541;28;20332;-69
2023/06/08 00:35:39;;;;;;;;;;;;;;;;;;5073827;28;19913;-69
2023/06/08 00:38:05;;;;;;;;;;;;;;;;;;5074293;28;20279;-69
2023/06/08 00:40:30;;;;;;;;;;;;;;;;;;5074567;28;19981;-69
2023/06/08 00:42:55;;;;;;;;;;;;;;;;;;5074164;28;19908;-68
2023/06/08 00:45:20;;;;;;;;;;;;;;;;;;5074080;28;19920;-69
2023/06/08 00:47:46;;;;;;;;;;;;;;;;;;5074080;28;19912;-69
2023/06/08 00:50:11;;;;;;;;;;;;;;;;;;5073814;28;19927;-69
2023/06/08 00:52:37;;;;;;;;;;;;;;;;;;5055853;28;19916;-69
2023/06/08 00:55:02;;;;;;;;;;;;;;;;;;5074131;28;20010;-69
2023/06/08 00:57:28;;;;;;;;;;;;;;;;;;5072762;28;20367;-68
2023/06/08 00:59:53;;;;;;;;;;;;;;;;;;5073922;28;19919;-69
2023/06/08 01:02:18;;;;;;;;;;;;;;;;;;5073887;28;19913;-69
2023/06/08 01:04:45;;;;;;;;;;;;;;;;;;5073548;28;20411;-69
2023/06/08 01:07:14;;;;;;;;;;;;;;;;;;5072414;28;19924;-69
2023/06/08 01:09:39;;;;;;;;;;;;;;;;;;5073684;28;19923;-69
2023/06/08 01:12:05;;;;;;;;;;;;;;;;;;5073695;28;20002;-69
2023/06/08 01:14:31;;;;;;;;;;;;;;;;;;5055559;28;20372;-69
2023/06/08 01:16:56;;;;;;;;;;;;;;;;;;5055795;28;19916;-69
2023/06/08 01:19:23;;;;;;;;;;;;;;;;;;5073486;28;20356;-69
2023/06/08 01:21:49;;;;;;;;;;;;;;;;;;5055509;28;20016;-69
2023/06/08 01:24:14;;;;;;;;;;;;;;;;;;5072449;28;20348;-70
2023/06/08 01:26:39;;;;;;;;;;;;;;;;;;5055607;28;19916;-69
2023/06/08 01:29:05;;;;;;;;;;;;;;;;;;5055479;28;19943;-70
2023/06/08 01:31:31;;;;;;;;;;;;;;;;;;5055548;28;20006;-69
2023/06/08 01:33:56;;;;;;;;;;;;;;;;;;5073689;28;19993;-68
2023/06/08 01:36:21;;;;;;;;;;;;;;;;;;5073161;28;19912;-68
2023/06/08 01:38:46;;;;;;;;;;;;;;;;;;5072372;28;19916;-67
2023/06/08 01:41:12;;;;;;;;;;;;;;;;;;5073154;28;20019;-68
2023/06/08 01:43:37;;;;;;;;;;;;;;;;;;5073145;28;20326;-70
2023/06/08 01:46:02;;;;;;;;;;;;;;;;;;5073500;28;19912;-69
2023/06/08 01:48:28;;;;;;;;;;;;;;;;;;5073079;28;19924;-69
2023/06/08 01:50:54;;;;;;;;;;;;;;;;;;5055170;28;20006;-69
2023/06/08 01:53:19;;;;;;;;;;;;;;;;;;5055257;28;19994;-69
2023/06/08 01:55:44;;;;;;;;;;;;;;;;;;5071907;28;20352;-69
2023/06/08 01:58:10;;;;;;;;;;;;;;;;;;5035431;28;20363;-69
2023/06/08 02:00:35;;;;;;;;;;;;;;;;;;5035131;28;19951;-69
2023/06/08 02:03:00;;;;;;;;;;;;;;;;;;5034995;28;19913;-69
2023/06/08 02:05:25;;;;;;;;;;;;;;;;;;5057243;28;19919;-70
2023/06/08 02:07:51;;;;;;;;;;;;;;;;;;5069231;28;19912;-69
2023/06/08 02:10:17;;;;;;;;;;;;;;;;;;5050985;28;19927;-69
2023/06/08 02:12:42;;;;;;;;;;;;;;;;;;5069045;28;20367;-69
2023/06/08 02:15:07;;;;;;;;;;;;;;;;;;5068685;28;19926;-70
2023/06/08 02:17:36;;;;;;;;;;;;;;;;;;5051357;28;20046;-70
2023/06/08 02:20:05;;;;;;;;;;;;;;;;;;5068217;28;19916;-70
2023/06/08 02:22:31;;;;;;;;;;;;;;;;;;5068673;28;19955;-70
2023/06/08 02:24:56;;;;;;;;;;;;;;;;;;5068635;28;20005;-70
2023/06/08 02:27:25;;;;;;;;;;;;;;;;;;5068287;28;19918;-69
2023/06/08 02:29:51;;;;;;;;;;;;;;;;;;5068671;28;19966;-68
2023/06/08 02:32:16;;;;;;;;;;;;;;;;;;5050279;28;19912;-69
2023/06/08 02:34:53;;;;;;;;;;;;;;;;;;5051088;28;19950;-68
2023/06/08 02:37:19;;;;;;;;;;;;;;;;;;5050252;28;20367;-69
2023/06/08 02:39:44;;;;;;;;;;;;;;;;;;5068657;28;19967;-71
2023/06/08 02:42:10;;;;;;;;;;;;;;;;;;5050332;28;19916;-71
2023/06/08 02:44:36;;;;;;;;;;;;;;;;;;5068417;28;20379;-70
2023/06/08 02:47:01;;;;;;;;;;;;;;;;;;5068406;28;19924;-70
2023/06/08 02:49:26;;;;;;;;;;;;;;;;;;5033659;28;19924;-69
2023/06/08 02:51:52;;;;;;;;;;;;;;;;;;5071665;28;20015;-69
2023/06/08 02:54:19;;;;;;;;;;;;;;;;;;5053415;28;19912;-71
2023/06/08 02:56:45;;;;;;;;;;;;;;;;;;5051143;28;19936;-71
2023/06/08 02:59:10;;;;;;;;;;;;;;;;;;5070405;28;19916;-69
2023/06/08 03:01:36;;;;;;;;;;;;;;;;;;5053908;28;20611;-69
2023/06/08 03:04:12;;;;;;;;;;;;;;;;;;5053609;28;19912;-68
2023/06/08 03:06:43;;;;;;;;;;;;;;;;;;5053871;28;20287;-69
2023/06/08 03:09:10;;;;;;;;;;;;;;;;;;5071372;28;19923;-71
2023/06/08 03:11:38;;;;;;;;;;;;;;;;;;5052461;28;20019;-69
2023/06/08 03:14:05;;;;;;;;;;;;;;;;;;5037107;28;19941;-71
2023/06/08 03:16:31;;;;;;;;;;;;;;;;;;5071219;28;19937;-70
2023/06/08 03:18:57;;;;;;;;;;;;;;;;;;5053642;28;19921;-70
2023/06/08 03:21:28;;;;;;;;;;;;;;;;;;5052062;28;19915;-70
2023/06/08 03:23:55;;;;;;;;;;;;;;;;;;5052935;28;19948;-69
2023/06/08 03:26:20;;;;;;;;;;;;;;;;;;5053098;28;19962;-69
2023/06/08 03:28:46;;;;;;;;;;;;;;;;;;5041040;28;19917;-70
2023/06/08 03:31:11;;;;;;;;;;;;;;;;;;5032517;28;19924;-69
2023/06/08 03:33:42;;;;;;;;;;;;;;;;;;5051090;28;19924;-69
2023/06/08 03:36:08;;;;;;;;;;;;;;;;;;5037591;28;19916;-69
2023/06/08 03:38:41;;;;;;;;;;;;;;;;;;5071051;28;19913;-68
2023/06/08 03:41:09;;;;;;;;;;;;;;;;;;5052762;28;19912;-68
2023/06/08 03:43:34;;;;;;;;;;;;;;;;;;5070854;28;19912;-69
2023/06/08 03:46:00;;;;;;;;;;;;;;;;;;5052891;28;19950;-69
2023/06/08 03:48:25;;;;;;;;;;;;;;;;;;5052276;28;20328;-68
2023/06/08 03:50:52;;;;;;;;;;;;;;;;;;5052158;28;19974;-68
2023/06/08 03:53:17;;;;;;;;;;;;;;;;;;5052435;28;20334;-68
2023/06/08 03:55:42;;;;;;;;;;;;;;;;;;5052513;28;19958;-67
2023/06/08 03:58:08;;;;;;;;;;;;;;;;;;5069815;28;19909;-68
2023/06/08 04:00:33;;;;;;;;;;;;;;;;;;5065145;28;19923;-68
2023/06/08 04:02:58;;;;;;;;;;;;;;;;;;5051417;28;19962;-69
2023/06/08 04:05:25;;;;;;;;;;;;;;;;;;5069116;28;20356;-70
2023/06/08 04:07:53;;;;;;;;;;;;;;;;;;5069323;28;20011;-69
2023/06/08 04:10:18;;;;;;;;;;;;;;;;;;5052371;28;19920;-72
2023/06/08 04:12:43;;;;;;;;;;;;;;;;;;5052397;28;19914;-69
2023/06/08 04:15:09;;;;;;;;;;;;;;;;;;5052493;28;19967;-69
2023/06/08 04:17:36;;;;;;;;;;;;;;;;;;5069433;28;20194;-70
2023/06/08 04:20:04;;;;;;;;;;;;;;;;;;5052181;28;19913;-70
2023/06/08 04:22:30;;;;;;;;;;;;;;;;;;5052694;28;19915;-70
2023/06/08 04:24:56;;;;;;;;;;;;;;;;;;5069539;28;20295;-69
2023/06/08 04:27:21;;;;;;;;;;;;;;;;;;5070156;28;19955;-69
2023/06/08 04:29:46;;;;;;;;;;;;;;;;;;5052303;28;19942;-69
2023/06/08 04:32:12;;;;;;;;;;;;;;;;;;5070001;28;19908;-69
2023/06/08 04:34:37;;;;;;;;;;;;;;;;;;5052290;28;19920;-70
2023/06/08 04:37:03;;;;;;;;;;;;;;;;;;5070498;28;19912;-69
2023/06/08 04:39:28;;;;;;;;;;;;;;;;;;5052464;28;19915;-69
2023/06/08 04:41:55;;;;;;;;;;;;;;;;;;5068804;28;19962;-70
2023/06/08 04:44:20;;;;;;;;;;;;;;;;;;5051614;28;20007;-69
2023/06/08 04:46:48;;;;;;;;;;;;;;;;;;5068410;28;20379;-70
2023/06/08 04:49:14;;;;;;;;;;;;;;;;;;5069990;28;19974;-70
2023/06/08 04:51:40;;;;;;;;;;;;;;;;;;5070247;28;19919;-69
2023/06/08 04:54:05;;;;;;;;;;;;;;;;;;5070001;28;19913;-68
2023/06/08 04:56:33;;;;;;;;;;;;;;;;;;5070211;28;20363;-68
2023/06/08 04:58:58;;;;;;;;;;;;;;;;;;5051779;28;20346;-68
2023/06/08 05:01:24;;;;;;;;;;;;;;;;;;5052067;28;20007;-68
2023/06/08 05:03:49;;;;;;;;;;;;;;;;;;5052182;28;19958;-69
2023/06/08 05:06:14;;;;;;;;;;;;;;;;;;5070031;28;19912;-70
2023/06/08 05:08:40;;;;;;;;;;;;;;;;;;5069551;28;19920;-69
2023/06/08 05:11:05;;;;;;;;;;;;;;;;;;5042454;28;19916;-70
2023/06/08 05:13:30;;;;;;;;;;;;;;;;;;5068706;28;19916;-70
2023/06/08 05:15:58;;;;;;;;;;;;;;;;;;5069621;28;19912;-70
2023/06/08 05:18:23;;;;;;;;;;;;;;;;;;5052086;28;19919;-71
2023/06/08 05:20:48;;;;;;;;;;;;;;;;;;5048786;28;20271;-70
2023/06/08 05:23:14;;;;;;;;;;;;;;;;;;5049829;28;19916;-70
2023/06/08 05:25:39;;;;;;;;;;;;;;;;;;5048887;28;19913;-70
2023/06/08 05:28:04;;;;;;;;;;;;;;;;;;5050066;28;19924;-70
2023/06/08 05:30:30;;;;;;;;;;;;;;;;;;5067671;28;19920;-70
2023/06/08 05:32:55;;;;;;;;;;;;;;;;;;5067190;28;19973;-70
2023/06/08 05:35:21;;;;;;;;;;;;;;;;;;5067798;28;19916;-70
2023/06/08 05:37:46;;;;;;;;;;;;;;;;;;5067938;28;20291;-69
2023/06/08 05:40:11;;;;;;;;;;;;;;;;;;5067839;28;19920;-69
2023/06/08 05:42:36;;;;;;;;;;;;;;;;;;5073396;28;19923;-70
2023/06/08 05:45:02;;;;;;;;;;;;;;;;;;5068794;28;19912;-70
2023/06/08 05:47:27;;;;;;;;;;;;;;;;;;5069396;28;19916;-69
2023/06/08 05:49:52;;;;;;;;;;;;;;;;;;5069479;28;19939;-70
2023/06/08 05:52:17;;;;;;;;;;;;;;;;;;5069214;28;19920;-70
2023/06/08 05:54:43;;;;;;;;;;;;;;;;;;5070091;28;19956;-70
2023/06/08 05:57:08;;;;;;;;;;;;;;;;;;5069199;28;19920;-70
2023/06/08 05:59:33;;;;;;;;;;;;;;;;;;5069018;28;20013;-70
2023/06/08 06:01:58;;;;;;;;;;;;;;;;;;5069066;28;19912;-70
2023/06/08 06:04:23;;;;;;;;;;;;;;;;;;5069068;28;19912;-70
2023/06/08 06:06:49;;;;;;;;;;;;;;;;;;5051319;28;20267;-71
2023/06/08 06:09:14;;;;;;;;;;;;;;;;;;5068904;28;19958;-69
2023/06/08 06:11:40;;;;;;;;;;;;;;;;;;5068831;28;19968;-71
2023/06/08 06:14:05;;;;;;;;;;;;;;;;;;5068769;28;20322;-71
2023/06/08 06:16:30;;;;;;;;;;;;;;;;;;5068583;28;19908;-70
2023/06/08 06:18:55;;;;;;;;;;;;;;;;;;5068976;28;20287;-71
2023/06/08 06:21:21;;;;;;;;;;;;;;;;;;5069234;28;19924;-72
2023/06/08 06:23:46;;;;;;;;;;;;;;;;;;5068818;28;19919;-71
2023/06/08 06:26:11;;;;;;;;;;;;;;;;;;5070679;28;19965;-72
2023/06/08 06:28:36;;;;;;;;;;;;;;;;;;5072550;28;19920;-71
2023/06/08 06:31:03;;;;;;;;;;;;;;;;;;5072293;28;20383;-70
2023/06/08 06:33:28;;;;;;;;;;;;;;;;;;5072293;28;19908;-70
2023/06/08 06:35:53;;;;;;;;;;;;;;;;;;5072232;28;19923;-70
2023/06/08 06:38:19;;;;;;;;;;;;;;;;;;5072273;28;19913;-71
2023/06/08 06:40:50;;;;;;;;;;;;;;;;;;5072510;28;20379;-70
2023/06/08 06:43:15;;;;;;;;;;;;;;;;;;5072406;28;19939;-70
2023/06/08 06:45:50;;;;;;;;;;;;;;;;;;5054441;28;20005;-69
2023/06/08 06:48:15;;;;;;;;;;;;;;;;;;5072298;28;20466;-70
2023/06/08 06:50:41;;;;;;;;;;;;;;;;;;5071801;28;20407;-69
2023/06/08 06:53:06;;;;;;;;;;;;;;;;;;5072330;28;20379;-69
2023/06/08 06:55:34;;;;;;;;;;;;;;;;;;5081742;28;19912;-70
2023/06/08 06:58:00;;;;;;;;;;;;;;;;;;5072081;28;19917;-70
2023/06/08 07:00:26;;;;;;;;;;;;;;;;;;5071820;28;19918;-71
2023/06/08 07:02:51;;;;;;;;;;;;;;;;;;5071925;28;19908;-69
2023/06/08 07:05:17;;;;;;;;;;;;;;;;;;5072358;28;19912;-70
2023/06/08 07:07:43;;;;;;;;;;;;;;;;;;5071564;28;19955;-70
2023/06/08 07:10:08;;;;;;;;;;;;;;;;;;5071509;28;20877;-72
2023/06/08 07:12:33;;;;;;;;;;;;;;;;;;5055462;28;19921;-70
2023/06/08 07:14:59;;;;;;;;;;;;;;;;;;5078803;28;19916;-70
2023/06/08 07:17:24;;;;;;;;;;;;;;;;;;5072011;28;19935;-69
2023/06/08 07:19:51;;;;;;;;;;;;;;;;;;5077520;28;19958;-71
2023/06/08 07:22:16;;;;;;;;;;;;;;;;;;5072628;28;19916;-70
2023/06/08 07:24:42;;;;;;;;;;;;;;;;;;5068095;28;19982;-71
2023/06/08 07:27:07;;;;;;;;;;;;;;;;;;5069485;28;19920;-72
2023/06/08 07:29:32;;;;;;;;;;;;;;;;;;5069435;28;19982;-72
2023/06/08 07:31:57;;;;;;;;;;;;;;;;;;5061147;28;19924;-72
2023/06/08 07:34:23;;;;;;;;;;;;;;;;;;5066194;28;19919;-72
2023/06/08 07:36:48;;;;;;;;;;;;;;;;;;5068205;28;19912;-72
2023/06/08 07:39:13;;;;;;;;;;;;;;;;;;5069350;28;19912;-72
2023/06/08 07:41:38;;;;;;;;;;;;;;;;;;5069217;28;20360;-72
2023/06/08 07:44:04;;;;;;;;;;;;;;;;;;5068127;28;19916;-73
2023/06/08 07:46:29;;;;;;;;;;;;;;;;;;5051777;28;19916;-74
2023/06/08 07:48:54;;;;;;;;;;;;;;;;;;5071444;28;20019;-72
2023/06/08 07:51:20;;;;;;;;;;;;;;;;;;5065958;28;19917;-72
2023/06/08 07:53:45;;;;;;;;;;;;;;;;;;5060894;28;19917;-73
2023/06/08 07:56:10;;;;;;;;;;;;;;;;;;5059798;28;19912;-72
2023/06/08 07:58:35;;;;;;;;;;;;;;;;;;5071074;28;19912;-72
2023/06/08 08:01:01;;;;;;;;;;;;;;;;;;5070933;28;19909;-73
2023/06/08 08:03:26;;;;;;;;;;;;;;;;;;5069394;28;19912;-73
2023/06/08 08:05:51;;;;;;;;;;;;;;;;;;5068872;28;19912;-73
2023/06/08 08:08:16;;;;;;;;;;;;;;;;;;5054750;28;19912;-72
2023/06/08 08:10:41;;;;;;;;;;;;;;;;;;5068126;28;20014;-72
2023/06/08 08:13:08;;;;;;;;;;;;;;;;;;5064535;28;20007;-72
2023/06/08 08:15:33;;;;;;;;;;;;;;;;;;5070604;28;19974;-71
2023/06/08 08:17:58;;;;;;;;;;;;;;;;;;5050081;28;19920;-80
2023/06/08 08:20:24;;;;;;;;;;;;;;;;;;5060499;28;19922;-75
2023/06/08 08:22:49;;;;;;;;;;;;;;;;;;5065384;28;19987;-75
2023/06/08 08:25:15;;;;;;;;;;;;;;;;;;5065035;28;19920;-74
2023/06/08 08:27:40;;;;;;;;;;;;;;;;;;5067705;28;19924;-75
2023/06/08 08:30:05;;;;;;;;;;;;;;;;;;5062135;28;19967;-75
2023/06/08 08:32:30;;;;;;;;;;;;;;;;;;5062212;28;20253;-75
2023/06/08 08:34:56;;;;;;;;;;;;;;;;;;5058398;28;19920;-75
2023/06/08 08:37:21;;;;;;;;;;;;;;;;;;5065005;28;19912;-77
2023/06/08 08:39:46;;;;;;;;;;;;;;;;;;5070089;28;19966;-76
2023/06/08 08:42:11;;;;;;;;;;;;;;;;;;5060276;28;19912;-75
2023/06/08 08:44:37;;;;;;;;;;;;;;;;;;5065826;28;19963;-75
2023/06/08 08:47:04;;;;;;;;;;;;;;;;;;5067157;28;20033;-75
2023/06/08 08:49:32;;;;;;;;;;;;;;;;;;5048736;28;20015;-75
2023/06/08 08:51:57;;;;;;;;;;;;;;;;;;5069526;28;20383;-76
2023/06/08 08:54:31;;;;;;;;;;;;;;;;;;5065278;28;19956;-76
2023/06/08 08:56:57;;;;;;;;;;;;;;;;;;5065504;28;20000;-75
2023/06/08 08:59:23;;;;;;;;;;;;;;;;;;5068508;28;20007;-74
2023/06/08 09:01:48;;;;;;;;;;;;;;;;;;5062696;28;20275;-76
2023/06/08 09:04:14;;;;;;;;;;;;;;;;;;5066151;28;20355;-80
2023/06/08 09:06:39;;;;;;;;;;;;;;;;;;5069389;28;19999;-77
2023/06/08 09:09:04;;;;;;;;;;;;;;;;;;5069428;28;19920;-77
2023/06/08 09:11:30;;;;;;;;;;;;;;;;;;5068732;28;20002;-76
2023/06/08 09:13:55;;;;;;;;;;;;;;;;;;5070523;28;19934;-76
2023/06/08 09:16:20;;;;;;;;;;;;;;;;;;5050043;28;19913;-77
2023/06/08 09:18:46;;;;;;;;;;;;;;;;;;5060380;28;19913;-74
2023/06/08 09:21:12;;;;;;;;;;;;;;;;;;5050194;28;19923;-76
2023/06/08 09:23:37;;;;;;;;;;;;;;;;;;5050140;28;20410;-75
2023/06/08 09:26:03;;;;;;;;;;;;;;;;;;5048323;28;19952;-78
2023/06/08 09:28:28;;;;;;;;;;;;;;;;;;5046618;28;19917;-75
2023/06/08 09:30:55;;;;;;;;;;;;;;;;;;5045713;28;19924;-75
2023/06/08 09:33:20;;;;;;;;;;;;;;;;;;5046342;28;19920;-76
2023/06/08 09:35:45;;;;;;;;;;;;;;;;;;5045438;28;19909;-78
2023/06/08 09:38:16;;;;;;;;;;;;;;;;;;5045768;28;19909;-77
2023/06/08 09:40:42;;;;;;;;;;;;;;;;;;5046820;28;19920;-80
2023/06/08 09:43:07;;;;;;;;;;;;;;;;;;5050536;28;19908;-79
2023/06/08 09:45:32;;;;;;;;;;;;;;;;;;5051382;28;19908;-76
2023/06/08 09:47:59;;;;;;;;;;;;;;;;;;5049277;28;20003;-82
2023/06/08 09:50:24;;;;;;;;;;;;;;;;;;5049425;28;19913;-79
2023/06/08 09:52:50;;;;;;;;;;;;;;;;;;5066039;28;20011;-75
2023/06/08 09:55:16;;;;;;;;;;;;;;;;;;5069680;28;20223;-75
2023/06/08 09:57:41;;;;;;;;;;;;;;;;;;5069368;28;19915;-80
2023/06/08 10:00:17;;;;;;;;;;;;;;;;;;5068554;28;20379;-75
2023/06/08 10:02:44;;;;;;;;;;;;;;;;;;5068493;28;19923;-75
2023/06/08 10:05:10;;;;;;;;;;;;;;;;;;5069126;28;19912;-75
2023/06/08 10:07:35;;;;;;;;;;;;;;;;;;5069498;28;19908;-75
2023/06/08 10:10:01;;;;;;;;;;;;;;;;;;5068927;28;20276;-75
2023/06/08 10:12:26;;;;;;;;;;;;;;;;;;5051160;28;19948;-79
2023/06/08 10:14:51;;;;;;;;;;;;;;;;;;5069161;28;20599;-75
2023/06/08 10:17:16;;;;;;;;;;;;;;;;;;5068794;28;19919;-75
2023/06/08 10:19:42;;;;;;;;;;;;;;;;;;5069323;28;20360;-75
2023/06/08 10:22:07;;;;;;;;;;;;;;;;;;5069416;28;19923;-75
2023/06/08 10:24:32;;;;;;;;;;;;;;;;;;5069209;28;20555;-81
2023/06/08 10:26:57;;;;;;;;;;;;;;;;;;5069156;28;20417;-77
2023/06/08 10:29:23;;;;;;;;;;;;;;;;;;5068768;28;19920;-85
2023/06/08 10:31:48;;;;;;;;;;;;;;;;;;5068992;28;19912;-75
2023/06/08 10:34:13;;;;;;;;;;;;;;;;;;5069013;28;20321;-74
2023/06/08 10:36:42;;;;;;;;;;;;;;;;;;5068798;28;19912;-76
2023/06/08 10:39:10;;;;;;;;;;;;;;;;;;5069028;28;20019;-74
2023/06/08 10:41:35;;;;;;;;;;;;;;;;;;5068743;28;19912;-75
2023/06/08 10:44:00;;;;;;;;;;;;;;;;;;5067972;28;20015;-72
2023/06/08 10:46:26;;;;;;;;;;;;;;;;;;5068544;28;19916;-70
2023/06/08 10:48:51;;;;;;;;;;;;;;;;;;5067896;28;19923;-73
2023/06/08 10:51:16;;;;;;;;;;;;;;;;;;5068839;28;19916;-72
2023/06/08 10:53:42;;;;;;;;;;;;;;;;;;5065894;28;19912;-71
2023/06/08 10:56:07;;;;;;;;;;;;;;;;;;5065730;28;20363;-70
2023/06/08 10:58:32;;;;;;;;;;;;;;;;;;5066150;28;19999;-70
2023/06/08 11:00:57;;;;;;;;;;;;;;;;;;5066345;28;19970;-71
2023/06/08 11:03:24;;;;;;;;;;;;;;;;;;5069660;28;19916;-72
2023/06/08 11:05:50;;;;;;;;;;;;;;;;;;5049379;28;19916;-72
2023/06/08 11:08:16;;;;;;;;;;;;;;;;;;5065764;28;19912;-73
2023/06/08 11:10:42;;;;;;;;;;;;;;;;;;5066818;28;20070;-73
2023/06/08 11:13:07;;;;;;;;;;;;;;;;;;5070752;28;20376;-71
2023/06/08 11:15:33;;;;;;;;;;;;;;;;;;5069847;28;19916;-70
2023/06/08 11:17:58;;;;;;;;;;;;;;;;;;5059863;28;19920;-72
2023/06/08 11:20:23;;;;;;;;;;;;;;;;;;5057769;28;19912;-71
2023/06/08 11:22:48;;;;;;;;;;;;;;;;;;5069855;28;19912;-71
2023/06/08 11:25:14;;;;;;;;;;;;;;;;;;5069764;28;19942;-72
2023/06/08 11:27:39;;;;;;;;;;;;;;;;;;5069553;28;19986;-74
2023/06/08 11:30:04;;;;;;;;;;;;;;;;;;5068907;28;19962;-74
2023/06/08 11:32:29;;;;;;;;;;;;;;;;;;5075318;28;19912;-73
2023/06/08 11:34:55;;;;;;;;;;;;;;;;;;5070095;28;19912;-73
2023/06/08 11:37:20;;;;;;;;;;;;;;;;;;5040907;28;20375;-71
2023/06/08 11:39:46;;;;;;;;;;;;;;;;;;5066799;28;19916;-71
2023/06/08 11:42:11;;;;;;;;;;;;;;;;;;5068140;28;19920;-71
2023/06/08 11:44:36;;;;;;;;;;;;;;;;;;5066348;28;19912;-72
2023/06/08 11:47:01;;;;;;;;;;;;;;;;;;5080881;28;20299;-74
2023/06/08 11:49:26;;;;;;;;;;;;;;;;;;5089637;28;20023;-73
2023/06/08 11:51:52;;;;;;;;;;;;;;;;;;5069997;28;20315;-74
2023/06/08 11:54:17;;;;;;;;;;;;;;;;;;5069138;28;20333;-73
2023/06/08 11:56:45;;;;;;;;;;;;;;;;;;5069175;28;20360;-72
2023/06/08 11:59:10;;;;;;;;;;;;;;;;;;5069100;28;19912;-72
2023/06/08 12:01:37;;;;;;;;;;;;;;;;;;5069304;28;19923;-73
2023/06/08 12:04:02;;;;;;;;;;;;;;;;;;5072515;28;19943;-72
2023/06/08 12:06:28;;;;;;;;;;;;;;;;;;5071984;28;20179;-73
2023/06/08 12:08:54;;;;;;;;;;;;;;;;;;5063960;28;19920;-73
2023/06/08 12:11:20;;;;;;;;;;;;;;;;;;5063108;28;19913;-72
2023/06/08 12:13:46;;;;;;;;;;;;;;;;;;5044706;28;19912;-73
2023/06/08 12:16:11;;;;;;;;;;;;;;;;;;5058372;28;19916;-72
2023/06/08 12:18:38;;;;;;;;;;;;;;;;;;5063336;28;19916;-73
2023/06/08 12:21:08;;;;;;;;;;;;;;;;;;5067978;28;19916;-72
2023/06/08 12:23:33;;;;;;;;;;;;;;;;;;5061178;28;19927;-72
2023/06/08 12:25:58;;;;;;;;;;;;;;;;;;5057127;28;19920;-72
2023/06/08 12:28:24;;;;;;;;;;;;;;;;;;5060286;28;19923;-71
2023/06/08 12:30:49;;;;;;;;;;;;;;;;;;5047067;28;19938;-71
2023/06/08 12:33:19;;;;;;;;;;;;;;;;;;5068115;28;19981;-74
2023/06/08 12:35:44;;;;;;;;;;;;;;;;;;5068080;28;19912;-74
2023/06/08 12:38:10;;;;;;;;;;;;;;;;;;5066219;28;19954;-73
2023/06/08 12:40:35;;;;;;;;;;;;;;;;;;5066019;28;19912;-72
2023/06/08 12:43:00;;;;;;;;;;;;;;;;;;5065811;28;20355;-73
2023/06/08 12:45:25;;;;;;;;;;;;;;;;;;5067880;28;20151;-73
2023/06/08 12:47:51;;;;;;;;;;;;;;;;;;5052213;28;19916;-72
2023/06/08 12:50:22;;;;;;;;;;;;;;;;;;5068735;28;19951;-75
2023/06/08 12:52:47;;;;;;;;;;;;;;;;;;5065806;28;19999;-72
2023/06/08 12:55:13;;;;;;;;;;;;;;;;;;5064650;28;20358;-71
2023/06/08 12:57:38;;;;;;;;;;;;;;;;;;5065059;28;19918;-72
2023/06/08 13:00:03;;;;;;;;;;;;;;;;;;5065430;28;19912;-73
2023/06/08 13:02:29;;;;;;;;;;;;;;;;;;5066726;28;20367;-73
2023/06/08 13:04:54;;;;;;;;;;;;;;;;;;5066465;28;19999;-75
2023/06/08 13:07:20;;;;;;;;;;;;;;;;;;5066564;28;19999;-74
2023/06/08 13:09:45;;;;;;;;;;;;;;;;;;5068010;28;20326;-74
2023/06/08 13:12:10;;;;;;;;;;;;;;;;;;5067583;28;19983;-73
2023/06/08 13:14:35;;;;;;;;;;;;;;;;;;5067197;28;19912;-73
2023/06/08 13:17:01;;;;;;;;;;;;;;;;;;5067366;28;19969;-73
2023/06/08 13:19:26;;;;;;;;;;;;;;;;;;5068140;28;19939;-73
2023/06/08 13:21:51;;;;;;;;;;;;;;;;;;5067727;28;19912;-72
2023/06/08 13:24:16;;;;;;;;;;;;;;;;;;5067810;28;19912;-72
2023/06/08 13:26:42;;;;;;;;;;;;;;;;;;5070325;28;19920;-71
2023/06/08 13:29:07;;;;;;;;;;;;;;;;;;5066965;28;19928;-70
2023/06/08 13:31:33;;;;;;;;;;;;;;;;;;5063325;28;19908;-72
2023/06/08 13:33:58;;;;;;;;;;;;;;;;;;5059913;28;19928;-72
2023/06/08 13:36:23;;;;;;;;;;;;;;;;;;5056501;28;19996;-73
2023/06/08 13:38:48;;;;;;;;;;;;;;;;;;5064421;28;20301;-71
2023/06/08 13:41:15;;;;;;;;;;;;;;;;;;5049153;28;19912;-71
2023/06/08 13:43:43;;;;;;;;;;;;;;;;;;5049237;28;19908;-71
2023/06/08 13:46:08;;;;;;;;;;;;;;;;;;5059932;28;19912;-72
2023/06/08 13:48:34;;;;;;;;;;;;;;;;;;5053792;28;20360;-72
2023/06/08 13:50:59;;;;;;;;;;;;;;;;;;5058569;28;20300;-73
2023/06/08 13:53:25;;;;;;;;;;;;;;;;;;5052437;28;19928;-73
2023/06/08 13:55:50;;;;;;;;;;;;;;;;;;5020907;28;20523;-72
2023/06/08 13:58:16;;;;;;;;;;;;;;;;;;5049459;28;19912;-73
2023/06/08 14:00:41;;;;;;;;;;;;;;;;;;5046917;28;19917;-72
2023/06/08 14:03:06;;;;;;;;;;;;;;;;;;5047385;28;19916;-73
2023/06/08 14:05:31;;;;;;;;;;;;;;;;;;5050205;28;20269;-72
2023/06/08 14:07:57;;;;;;;;;;;;;;;;;;5046621;28;19939;-74
2023/06/08 14:10:22;;;;;;;;;;;;;;;;;;5067035;28;19924;-72
2023/06/08 14:12:51;;;;;;;;;;;;;;;;;;5067193;28;19947;-71
2023/06/08 14:15:16;;;;;;;;;;;;;;;;;;5060363;28;19912;-74
2023/06/08 14:17:41;;;;;;;;;;;;;;;;;;5059783;28;19916;-73
2023/06/08 14:20:07;;;;;;;;;;;;;;;;;;5056673;28;19948;-74
2023/06/08 14:22:32;;;;;;;;;;;;;;;;;;5066837;28;19916;-71
2023/06/08 14:24:57;;;;;;;;;;;;;;;;;;5059467;28;19939;-74
2023/06/08 14:27:22;;;;;;;;;;;;;;;;;;5057614;28;20399;-75
2023/06/08 14:29:47;;;;;;;;;;;;;;;;;;5059284;28;20287;-72
2023/06/08 14:32:13;;;;;;;;;;;;;;;;;;5066623;28;19912;-75
2023/06/08 14:34:38;;;;;;;;;;;;;;;;;;5065299;28;19912;-73
2023/06/08 14:37:03;;;;;;;;;;;;;;;;;;5061552;28;20269;-74
2023/06/08 14:39:29;;;;;;;;;;;;;;;;;;5066685;28;20420;-73
2023/06/08 14:41:54;;;;;;;;;;;;;;;;;;5066337;28;19913;-74
2023/06/08 14:44:20;;;;;;;;;;;;;;;;;;5062614;28;20577;-73
2023/06/08 14:46:45;;;;;;;;;;;;;;;;;;5065767;28;20010;-72
2023/06/08 14:49:10;;;;;;;;;;;;;;;;;;5063791;28;19924;-72
2023/06/08 14:51:35;;;;;;;;;;;;;;;;;;5059628;28;19959;-73
2023/06/08 14:54:01;;;;;;;;;;;;;;;;;;5066373;28;20352;-72
2023/06/08 14:56:26;;;;;;;;;;;;;;;;;;5063445;28;19920;-74
2023/06/08 14:58:51;;;;;;;;;;;;;;;;;;5069713;28;19955;-74
2023/06/08 15:01:16;;;;;;;;;;;;;;;;;;5042156;28;20451;-73
2023/06/08 15:03:43;;;;;;;;;;;;;;;;;;5057992;28;19919;-72
2023/06/08 15:06:08;;;;;;;;;;;;;;;;;;5069557;28;19916;-72
2023/06/08 15:08:34;;;;;;;;;;;;;;;;;;5069863;28;20263;-73
2023/06/08 15:10:59;;;;;;;;;;;;;;;;;;5069959;28;20287;-72
2023/06/08 15:13:24;;;;;;;;;;;;;;;;;;5070019;28;20144;-72
2023/06/08 15:15:50;;;;;;;;;;;;;;;;;;5069514;28;19923;-71
2023/06/08 15:18:16;;;;;;;;;;;;;;;;;;5050837;28;20275;-72
2023/06/08 15:20:41;;;;;;;;;;;;;;;;;;5070219;28;19917;-70
2023/06/08 15:23:08;;;;;;;;;;;;;;;;;;5069931;28;20322;-71
2023/06/08 15:25:33;;;;;;;;;;;;;;;;;;5069752;28;20276;-72
2023/06/08 15:27:58;;;;;;;;;;;;;;;;;;5069657;28;19913;-72
2023/06/08 15:30:23;;;;;;;;;;;;;;;;;;5068863;28;20267;-73
2023/06/08 15:32:49;;;;;;;;;;;;;;;;;;5069662;28;19912;-72
2023/06/08 15:35:14;;;;;;;;;;;;;;;;;;5069643;28;19908;-73
2023/06/08 15:37:39;;;;;;;;;;;;;;;;;;5069823;28;20010;-74
2023/06/08 15:40:05;;;;;;;;;;;;;;;;;;5060905;28;19919;-68
2023/06/08 15:42:30;;;;;;;;;;;;;;;;;;5053241;28;20330;-74
2023/06/08 15:44:55;;;;;;;;;;;;;;;;;;5057424;28;19922;-73
2023/06/08 15:47:21;;;;;;;;;;;;;;;;;;5058242;28;20116;-72
2023/06/08 15:49:46;;;;;;;;;;;;;;;;;;5056548;28;19920;-71
2023/06/08 15:52:11;;;;;;;;;;;;;;;;;;5058194;28;19916;-72
2023/06/08 15:54:36;;;;;;;;;;;;;;;;;;5062874;28;19967;-73
2023/06/08 15:57:02;;;;;;;;;;;;;;;;;;5063117;28;19923;-72
2023/06/08 15:59:27;;;;;;;;;;;;;;;;;;5046199;28;20002;-72
2023/06/08 16:01:53;;;;;;;;;;;;;;;;;;5063892;28;20474;-72
2023/06/08 16:04:18;;;;;;;;;;;;;;;;;;5063145;28;19923;-73
2023/06/08 16:06:43;;;;;;;;;;;;;;;;;;5031072;28;20241;-72
2023/06/08 16:09:09;;;;;;;;;;;;;;;;;;5054444;28;19920;-72
2023/06/08 16:11:34;;;;;;;;;;;;;;;;;;5060190;28;20006;-72
2023/06/08 16:14:00;;;;;;;;;;;;;;;;;;5048676;28;19913;-73
2023/06/08 16:16:25;;;;;;;;;;;;;;;;;;5048671;28;19913;-73
2023/06/08 16:18:51;;;;;;;;;;;;;;;;;;5049075;28;20017;-69
2023/06/08 16:21:16;;;;;;;;;;;;;;;;;;5048985;28;20019;-70
2023/06/08 16:23:42;;;;;;;;;;;;;;;;;;5048753;28;19913;-69
2023/06/08 16:26:07;;;;;;;;;;;;;;;;;;5049803;28;20110;-68
2023/06/08 16:28:32;;;;;;;;;;;;;;;;;;5050729;28;19913;-68
2023/06/08 16:30:57;;;;;;;;;;;;;;;;;;5049961;28;19928;-68
2023/06/08 16:33:23;;;;;;;;;;;;;;;;;;5058112;28;19920;-69
2023/06/08 16:35:51;;;;;;;;;;;;;;;;;;5068626;28;20348;-68